| time (UTC) | temp F | wind direction | speed MPH | gust MPH | rain 1hr in | rain 24hr in | rain mn in | humidity % | barometer mb |
| 20260510163002 | 78 | 335 | 2.0 | 4.0 | 0.00 | 0.00 | 0.00 | 67 | 992.0 |
| 20260510160005 | 77 | 245 | 2.0 | 7.0 | 0.00 | 0.00 | 0.00 | 74 | 991.9 |
| 20260510153008 | 75 | 297 | 1.0 | 4.0 | 0.00 | 0.00 | 0.00 | 81 | 991.9 |
| 20260510150010 | 70 | 200 | 0.0 | 4.0 | 0.00 | 0.00 | 0.00 | 88 | 991.6 |
| 20260510143008 | 66 | 233 | 0.0 | 0.0 | 0.00 | 0.00 | 0.00 | 95 | 991.6 |
| 20260510140007 | 64 | 233 | 0.0 | 0.0 | 0.00 | 0.00 | 0.00 | 96 | 991.3 |
| 20260510133001 | 63 | 233 | 0.0 | 0.0 | 0.00 | 0.00 | 0.00 | 96 | 991.4 |
| 20260510130002 | 61 | 233 | 0.0 | 0.0 | 0.00 | 0.00 | 0.00 | 96 | 991.5 |
| 20260510120004 | 60 | 233 | 0.0 | 3.0 | 0.00 | 0.00 | 0.00 | 95 | 990.9 |
| 20260510110003 | 59 | 239 | 0.0 | 0.0 | 0.00 | 0.00 | 0.00 | 95 | 989.7 |
| 20260510100003 | 60 | 239 | 0.0 | 0.0 | 0.00 | 0.00 | 0.00 | 94 | 989.1 |
| 20260510090004 | 60 | 239 | 0.0 | 0.0 | 0.00 | 0.00 | 0.00 | 93 | 988.8 |
| 20260510080003 | 62 | 268 | 0.0 | 0.0 | 0.00 | 0.00 | 0.00 | 93 | 988.6 |
| 20260510070001 | 62 | 184 | 0.0 | 1.0 | 0.00 | 0.00 | 0.00 | 92 | 988.2 |
| 20260510043003 | 65 | 194 | 5.0 | 11.0 | 0.00 | 0.00 | 0.00 | 90 | 988.3 |
| 20260510040007 | 65 | 191 | 1.0 | 6.0 | 0.00 | 0.00 | 0.00 | 88 | 988.3 |
| 20260510033007 | 65 | 240 | 1.0 | 4.0 | 0.00 | 0.00 | 0.00 | 88 | 988.6 |
| 20260510030011 | 65 | 228 | 1.0 | 3.0 | 0.00 | 0.00 | 0.00 | 88 | 988.1 |
| 20260510023000 | 66 | 170 | 0.0 | 0.0 | 0.00 | 0.00 | 0.00 | 87 | 987.8 |
| 20260510013001 | 68 | 229 | 0.0 | 0.0 | 0.00 | 0.00 | 0.00 | 83 | 986.7 |
| 20260510010003 | 69 | 228 | 0.0 | 0.0 | 0.00 | 0.00 | 0.00 | 80 | 986.1 |
| 20260510000002 | 73 | 223 | 0.0 | 3.0 | 0.00 | 0.00 | 0.00 | 75 | 985.6 |
| 20260509233001 | 75 | 253 | 0.0 | 0.0 | 0.00 | 0.00 | 0.00 | 74 | 985.6 |
| 20260509230012 | 76 | 220 | 0.0 | 0.0 | 0.00 | 0.00 | 0.00 | 70 | 985.5 |
| 20260509220006 | 77 | 228 | 0.0 | 2.0 | 0.00 | 0.00 | 0.00 | 64 | 985.2 |
| 20260509213003 | 79 | 208 | 0.0 | 5.0 | 0.00 | 0.00 | 0.00 | 63 | 985.1 |
| 20260509210006 | 80 | 287 | 0.0 | 2.0 | 0.00 | 0.00 | 0.00 | 58 | 985.1 |
| 20260509190005 | 79 | 92 | 1.0 | 8.0 | 0.00 | 0.00 | 0.00 | 62 | 985.7 |
| 20260509180002 | 79 | 209 | 1.0 | 5.0 | 0.00 | 0.00 | 0.00 | 64 | 986.2 |
| 20260509173002 | 77 | 204 | 4.0 | 8.0 | 0.00 | 0.00 | 0.00 | 66 | 986.3 |
| 20260509170005 | 76 | 182 | 2.0 | 6.0 | 0.00 | 0.00 | 0.00 | 67 | 986.2 |